createdAt,value
2023-05-14T00:00:39.298Z,13.51
2023-05-14T00:03:05.852Z,13.48
2023-05-14T00:05:44.615Z,13.52
2023-05-14T00:08:11.094Z,13.44
2023-05-14T00:10:44.042Z,13.36
2023-05-14T00:13:10.703Z,13.33
2023-05-14T00:15:37.643Z,13.27
2023-05-14T00:18:04.330Z,13.27
2023-05-14T00:20:42.890Z,13.20
2023-05-14T00:23:09.825Z,13.23
2023-05-14T00:25:36.428Z,13.23
2023-05-14T00:28:03.867Z,13.18
2023-05-14T00:30:39.818Z,13.19
2023-05-14T00:33:07.340Z,13.17
2023-05-14T00:35:35.795Z,13.10
2023-05-14T00:38:03.670Z,13.09
2023-05-14T00:40:39.274Z,13.11
2023-05-14T00:43:05.909Z,13.11
2023-05-14T00:45:32.368Z,13.03
2023-05-14T00:47:58.927Z,13.02
2023-05-14T00:50:26.042Z,13.09
2023-05-14T00:52:53.568Z,13.13
2023-05-14T00:55:21.526Z,13.04
2023-05-14T00:57:48.995Z,13.10
2023-05-14T01:00:15.906Z,13.01
2023-05-14T01:02:42.486Z,12.93
2023-05-14T01:05:09.466Z,12.90
2023-05-14T01:08:01.681Z,12.85
2023-05-14T01:10:36.851Z,12.81
2023-05-14T01:13:11.619Z,12.77
2023-05-14T01:15:52.793Z,12.75
2023-05-14T01:18:19.624Z,12.56
2023-05-14T01:20:46.265Z,12.51
2023-05-14T01:23:12.913Z,12.56
2023-05-14T01:25:39.464Z,12.58
2023-05-14T01:28:09.701Z,12.58
2023-05-14T01:30:39.298Z,12.53
2023-05-14T01:33:23.643Z,12.49
2023-05-14T01:35:53.640Z,12.51
2023-05-14T01:38:21.720Z,12.55
2023-05-14T01:41:01.206Z,12.44
2023-05-14T01:43:28.310Z,12.45
2023-05-14T01:45:55.622Z,12.43
2023-05-14T01:48:22.607Z,12.49
2023-05-14T01:50:49.317Z,12.53
2023-05-14T01:53:15.809Z,12.52
2023-05-14T01:55:42.419Z,12.50
2023-05-14T01:58:09.034Z,12.37
2023-05-14T02:00:35.690Z,12.31
2023-05-14T02:03:02.195Z,12.33
2023-05-14T02:05:31.854Z,12.21
2023-05-14T02:07:58.479Z,12.22
2023-05-14T02:10:25.258Z,12.20
2023-05-14T02:12:51.813Z,12.13
2023-05-14T02:15:18.668Z,12.15
2023-05-14T02:17:45.272Z,12.08
2023-05-14T02:20:12.498Z,12.10
2023-05-14T02:22:42.150Z,12.18
2023-05-14T02:25:15.078Z,12.25
2023-05-14T02:27:41.530Z,12.28
2023-05-14T02:30:09.282Z,12.23
2023-05-14T02:32:36.462Z,12.18
2023-05-14T02:35:03.516Z,12.09
2023-05-14T02:37:30.002Z,12.05
2023-05-14T02:40:08.452Z,12.03
2023-05-14T02:42:44.946Z,11.95
2023-05-14T02:45:11.514Z,11.90
2023-05-14T02:47:38.423Z,11.86
2023-05-14T02:52:56.921Z,11.88
2023-05-14T02:55:23.873Z,11.85
2023-05-14T02:57:50.446Z,11.83
2023-05-14T03:00:17.426Z,11.82
2023-05-14T03:02:44.903Z,11.82
2023-05-14T03:05:11.771Z,11.69
2023-05-14T03:07:38.172Z,11.65
2023-05-14T03:10:05.852Z,11.69
2023-05-14T03:12:32.393Z,11.65
2023-05-14T03:14:58.833Z,11.66
2023-05-14T03:17:25.424Z,11.76
2023-05-14T03:19:51.832Z,11.76
2023-05-14T03:22:18.558Z,11.80
2023-05-14T03:24:45.038Z,11.77
2023-05-14T03:27:11.505Z,11.72
2023-05-14T03:29:38.072Z,11.66
2023-05-14T03:32:04.987Z,11.66
2023-05-14T03:34:31.383Z,11.65
2023-05-14T03:36:59.642Z,11.69
2023-05-14T03:39:29.157Z,11.62
2023-05-14T03:41:57.194Z,11.59
2023-05-14T03:44:23.929Z,11.60
2023-05-14T03:46:50.686Z,11.54
2023-05-14T03:49:23.386Z,11.55
2023-05-14T03:52:07.447Z,11.55
2023-05-14T03:54:34.343Z,11.59
2023-05-14T03:57:21.572Z,11.62
2023-05-14T03:59:48.231Z,11.64
2023-05-14T04:02:14.905Z,11.66
2023-05-14T04:04:42.226Z,11.64
2023-05-14T04:07:09.193Z,11.50
2023-05-14T04:09:36.100Z,11.46
2023-05-14T04:16:06.882Z,11.40
2023-05-14T04:18:35.612Z,11.39
2023-05-14T04:21:02.580Z,11.39
2023-05-14T04:23:29.701Z,11.44
2023-05-14T04:26:05.676Z,11.47
2023-05-14T04:29:08.701Z,11.42
2023-05-14T04:31:36.482Z,11.48
2023-05-14T04:34:02.994Z,11.44
2023-05-14T04:44:03.491Z,11.30
2023-05-14T04:46:30.275Z,11.33
2023-05-14T04:49:06.089Z,11.30
2023-05-14T04:51:32.747Z,11.41
2023-05-14T04:53:59.344Z,11.45
2023-05-14T04:56:28.289Z,11.53
2023-05-14T04:58:54.853Z,11.52
2023-05-14T05:01:24.359Z,11.59
2023-05-14T05:04:17.505Z,11.65
2023-05-14T05:06:42.203Z,11.71
2023-05-14T05:09:26.556Z,11.70
2023-05-14T05:11:53.143Z,11.79
2023-05-14T05:14:19.712Z,11.81
2023-05-14T05:16:58.610Z,11.90
2023-05-14T05:19:35.757Z,11.97
2023-05-14T05:22:17.150Z,11.97
2023-05-14T05:24:43.776Z,12.02
2023-05-14T05:27:10.438Z,12.08
2023-05-14T05:29:37.213Z,12.03
2023-05-14T05:32:04.092Z,11.97
2023-05-14T05:34:30.529Z,11.99
2023-05-14T05:36:57.160Z,12.04
2023-05-14T05:39:35.112Z,12.11
2023-05-14T05:42:02.959Z,12.16
2023-05-14T05:44:29.527Z,12.12
2023-05-14T05:46:58.975Z,12.09
2023-05-14T05:49:27.768Z,12.03
2023-05-14T05:51:54.214Z,12.06
2023-05-14T05:54:49.709Z,12.02
2023-05-14T05:57:16.128Z,11.93
2023-05-14T05:59:42.561Z,12.02
2023-05-14T06:02:09.280Z,12.00
2023-05-14T06:04:35.799Z,12.04
2023-05-14T06:07:06.524Z,12.07
2023-05-14T06:09:48.161Z,12.13
2023-05-14T06:12:14.916Z,12.13
2023-05-14T06:14:41.373Z,12.12
2023-05-14T06:17:08.407Z,12.15
2023-05-14T06:23:15.447Z,12.36
2023-05-14T06:25:41.981Z,12.50
2023-05-14T06:28:11.697Z,12.53
2023-05-14T06:30:38.343Z,12.54
2023-05-14T06:33:04.736Z,12.56
2023-05-14T06:35:38.732Z,12.59
2023-05-14T06:38:05.215Z,12.68
2023-05-14T06:40:32.016Z,12.81
2023-05-14T06:42:58.464Z,12.92
2023-05-14T06:45:33.373Z,13.00
2023-05-14T06:48:00.076Z,13.07
2023-05-14T06:50:26.812Z,13.10
2023-05-14T06:52:55.717Z,13.12
2023-05-14T06:55:22.258Z,13.25
2023-05-14T06:57:48.933Z,13.37
2023-05-14T07:00:15.943Z,13.50
2023-05-14T07:02:42.387Z,13.55
2023-05-14T07:05:09.195Z,13.56
2023-05-14T07:07:45.194Z,13.67
2023-05-14T07:10:11.720Z,13.71
2023-05-14T07:12:38.480Z,13.87
2023-05-14T07:15:05.704Z,14.03
2023-05-14T07:17:32.156Z,14.11
2023-05-14T07:20:10.528Z,14.12
2023-05-14T07:22:36.959Z,13.94
2023-05-14T07:25:03.586Z,14.05
2023-05-14T07:27:30.074Z,14.13
2023-05-14T07:29:56.858Z,14.24
2023-05-14T07:32:25.153Z,14.20
2023-05-14T07:34:51.955Z,14.21
2023-05-14T07:37:18.856Z,14.41
2023-05-14T07:39:45.647Z,14.61
2023-05-14T07:42:24.633Z,14.67
2023-05-14T07:44:54.713Z,14.69
2023-05-14T07:47:21.408Z,14.78
2023-05-14T07:50:06.525Z,14.87
2023-05-14T07:52:32.953Z,15.06
2023-05-14T07:55:12.690Z,15.07
2023-05-14T07:57:39.403Z,15.10
2023-05-14T08:00:09.269Z,15.21
2023-05-14T08:02:45.285Z,15.33
2023-05-14T08:05:15.174Z,15.52
2023-05-14T08:07:41.648Z,15.57
2023-05-14T08:10:17.425Z,15.59
2023-05-14T08:12:44.022Z,15.62
2023-05-14T08:15:19.408Z,15.63
2023-05-14T08:17:45.936Z,15.62
2023-05-14T08:20:12.759Z,15.49
2023-05-14T08:22:39.413Z,15.61
2023-05-14T08:25:06.620Z,15.77
2023-05-14T08:27:45.007Z,15.90
2023-05-14T08:30:11.921Z,16.00
2023-05-14T08:32:38.756Z,16.17
2023-05-14T08:35:05.907Z,16.27
2023-05-14T08:37:32.543Z,16.45
2023-05-14T08:40:14.502Z,16.47
2023-05-14T08:42:41.904Z,16.56
2023-05-14T08:45:17.111Z,16.64
2023-05-14T08:47:47.369Z,16.64
2023-05-14T08:50:16.490Z,16.60
2023-05-14T08:52:43.126Z,16.72
2023-05-14T08:55:11.673Z,16.69
2023-05-14T08:57:54.450Z,16.80
2023-05-14T09:00:21.365Z,16.86
2023-05-14T09:02:48.958Z,16.79
2023-05-14T09:05:33.673Z,16.85
2023-05-14T09:08:03.462Z,16.98
2023-05-14T09:10:55.517Z,17.02
2023-05-14T09:13:31.074Z,17.13
2023-05-14T09:15:58.902Z,17.17
2023-05-14T09:18:37.841Z,17.19
2023-05-14T09:21:15.536Z,17.24
2023-05-14T09:23:58.797Z,17.33
2023-05-14T09:26:26.544Z,17.30
2023-05-14T09:29:13.673Z,17.49
2023-05-14T09:32:00.337Z,17.63
2023-05-14T09:37:10.327Z,17.75
2023-05-14T09:40:10.710Z,17.85
2023-05-14T09:49:51.984Z,18.15
2023-05-14T09:52:19.449Z,18.21
2023-05-14T10:18:58.996Z,18.68
2023-05-14T10:33:28.101Z,19.01
2023-05-14T10:40:09.982Z,19.11
2023-05-14T10:42:43.561Z,19.19
2023-05-14T10:53:52.565Z,19.69
2023-05-14T10:56:33.633Z,19.75
2023-05-14T10:59:12.153Z,19.77
2023-05-14T11:01:41.070Z,19.77
2023-05-14T11:04:09.787Z,19.81
2023-05-14T11:06:54.051Z,19.82
2023-05-14T11:09:24.239Z,19.98
2023-05-14T11:11:50.938Z,20.00
2023-05-14T11:17:13.592Z,20.07
2023-05-14T11:23:46.444Z,20.18
2023-05-14T11:26:19.387Z,20.11
2023-05-14T11:28:50.269Z,20.24
2023-05-14T11:34:37.280Z,20.46
2023-05-14T11:36:53.995Z,20.61
2023-05-14T11:39:28.139Z,20.67
2023-05-14T11:41:54.650Z,20.70
2023-05-14T11:44:31.225Z,20.86
2023-05-14T11:47:10.525Z,20.71
2023-05-14T11:49:52.022Z,20.62
2023-05-14T11:52:22.031Z,20.58
2023-05-14T11:54:54.739Z,20.51
2023-05-14T11:57:22.190Z,20.35
2023-05-14T12:00:00.486Z,20.47
2023-05-14T12:02:42.712Z,20.48
2023-05-14T12:05:13.246Z,20.52
2023-05-14T12:07:46.503Z,20.58
2023-05-14T12:10:20.247Z,20.66
2023-05-14T12:13:13.595Z,20.72
2023-05-14T12:16:13.607Z,20.66
2023-05-14T12:19:39.834Z,20.77
2023-05-14T12:22:24.302Z,20.88
2023-05-14T12:28:23.801Z,21.09
2023-05-14T12:31:02.957Z,21.03
2023-05-14T12:33:41.419Z,21.12
2023-05-14T12:36:21.339Z,21.20
2023-05-14T12:39:03.476Z,21.17
2023-05-14T12:41:33.750Z,21.25
2023-05-14T12:44:15.718Z,21.18
2023-05-14T12:46:47.109Z,21.17
2023-05-14T12:52:33.323Z,21.22
2023-05-14T13:01:43.001Z,21.47
2023-05-14T13:04:39.771Z,21.44
2023-05-14T13:10:52.400Z,21.23
2023-05-14T13:17:25.822Z,21.29
2023-05-14T13:19:58.673Z,21.36
2023-05-14T13:22:25.275Z,21.43
2023-05-14T13:24:51.774Z,21.47
2023-05-14T13:27:21.277Z,21.50
2023-05-14T13:29:47.740Z,21.55
2023-05-14T13:32:14.185Z,21.80
2023-05-14T13:34:40.791Z,21.83
2023-05-14T13:37:10.916Z,21.65
2023-05-14T13:39:37.396Z,21.81
2023-05-14T13:42:04.090Z,21.75
2023-05-14T13:44:30.926Z,21.60
2023-05-14T13:49:37.844Z,21.78
2023-05-14T13:52:04.704Z,21.73
2023-05-14T13:54:42.398Z,21.63
2023-05-14T13:57:08.861Z,21.60
2023-05-14T13:59:35.867Z,21.70
2023-05-14T14:02:08.872Z,21.75
2023-05-14T14:04:35.468Z,21.77
2023-05-14T14:07:19.512Z,21.78
2023-05-14T14:09:46.148Z,21.76
2023-05-14T14:12:13.692Z,21.58
2023-05-14T14:15:05.733Z,21.54
2023-05-14T14:17:56.494Z,21.72
2023-05-14T14:20:21.143Z,21.63
2023-05-14T14:23:35.152Z,21.39
2023-05-14T14:26:21.504Z,21.38
2023-05-14T14:29:46.629Z,21.48
2023-05-14T14:32:16.350Z,21.56
2023-05-14T14:34:43.037Z,21.46
2023-05-14T14:37:09.730Z,21.31
2023-05-14T14:39:36.308Z,21.30
2023-05-14T14:42:40.062Z,21.28
2023-05-14T14:45:28.708Z,21.29
2023-05-14T14:51:33.042Z,21.26
2023-05-14T14:53:59.696Z,21.44
2023-05-14T14:56:35.405Z,21.45
2023-05-14T14:59:01.783Z,21.43
2023-05-14T15:01:28.625Z,21.38
2023-05-14T15:03:55.119Z,21.26
2023-05-14T15:06:21.725Z,21.26
2023-05-14T15:08:48.196Z,21.30
2023-05-14T15:11:14.658Z,21.31
2023-05-14T15:13:41.911Z,21.33
2023-05-14T15:16:08.715Z,21.25
2023-05-14T15:18:35.226Z,21.24
2023-05-14T15:21:01.751Z,21.35
2023-05-14T15:23:40.748Z,21.33
2023-05-14T15:26:07.230Z,21.37
2023-05-14T15:28:33.732Z,21.12
2023-05-14T15:31:00.284Z,21.06
2023-05-14T15:33:26.815Z,21.06
2023-05-14T15:35:55.754Z,20.92
2023-05-14T15:38:22.280Z,20.98
2023-05-14T15:40:50.915Z,20.97
2023-05-14T15:43:42.866Z,20.75
2023-05-14T15:46:22.890Z,20.77
2023-05-14T15:48:52.836Z,20.80
2023-05-14T15:58:17.096Z,20.62
2023-05-14T16:00:43.718Z,20.65
2023-05-14T16:03:13.298Z,20.59
2023-05-14T16:05:40.081Z,20.60
2023-05-14T16:08:06.777Z,20.48
2023-05-14T16:10:39.350Z,20.30
2023-05-14T16:13:06.032Z,20.39
2023-05-14T16:15:32.450Z,20.38
2023-05-14T16:25:05.981Z,20.17
2023-05-14T16:27:32.657Z,20.19
2023-05-14T16:29:59.140Z,20.12
2023-05-14T16:32:25.720Z,20.04
2023-05-14T16:34:52.490Z,19.84
2023-05-14T16:37:22.326Z,19.81
2023-05-14T16:39:55.935Z,19.67
2023-05-14T16:42:22.562Z,19.66
2023-05-14T16:44:49.289Z,19.73
2023-05-14T16:47:15.956Z,19.71
2023-05-14T16:49:43.341Z,19.77
2023-05-14T16:52:10.629Z,19.61
2023-05-14T16:54:37.375Z,19.54
2023-05-14T16:57:05.022Z,19.46
2023-05-14T16:59:31.991Z,19.46
2023-05-14T17:01:58.827Z,19.39
2023-05-14T17:04:26.747Z,19.34
2023-05-14T17:06:54.102Z,19.31
2023-05-14T17:09:23.845Z,19.25
2023-05-14T17:11:50.802Z,19.12
2023-05-14T17:14:17.454Z,19.05
2023-05-14T17:16:43.961Z,18.93
2023-05-14T17:19:10.741Z,18.90
2023-05-14T17:21:37.407Z,18.97
2023-05-14T17:24:04.054Z,18.81
2023-05-14T17:26:39.543Z,18.80
2023-05-14T17:29:06.229Z,18.78
2023-05-14T17:31:32.830Z,18.62
2023-05-14T17:33:59.533Z,18.53
2023-05-14T17:36:26.289Z,18.31
2023-05-14T17:38:52.864Z,18.20
2023-05-14T17:41:22.283Z,18.02
2023-05-14T17:43:57.864Z,17.95
2023-05-14T17:46:25.226Z,17.94
2023-05-14T17:49:31.422Z,17.83
2023-05-14T17:51:59.019Z,17.67
2023-05-14T17:54:48.174Z,17.77
2023-05-14T17:57:16.113Z,17.61
2023-05-14T17:59:45.454Z,17.49
2023-05-14T18:02:34.291Z,17.41
2023-05-14T18:05:02.828Z,17.37
2023-05-14T18:07:34.442Z,17.42
2023-05-14T18:10:01.329Z,17.34
2023-05-14T18:12:31.800Z,17.15
2023-05-14T18:15:27.840Z,17.13
2023-05-14T18:17:58.974Z,17.14
2023-05-14T18:20:26.427Z,17.03
2023-05-14T18:22:55.363Z,16.99
2023-05-14T18:25:23.247Z,16.96
2023-05-14T18:27:50.690Z,16.91
2023-05-14T18:30:20.765Z,16.92
2023-05-14T18:32:49.652Z,16.69
2023-05-14T18:35:43.374Z,16.63
2023-05-14T18:46:07.308Z,16.46
2023-05-14T18:48:41.186Z,16.34
2023-05-14T18:53:51.774Z,16.21
2023-05-14T18:56:25.729Z,16.20
2023-05-14T18:58:58.560Z,16.15
2023-05-14T19:01:28.471Z,16.13
2023-05-14T19:03:56.197Z,16.05
2023-05-14T19:09:07.234Z,16.01
2023-05-14T19:11:37.092Z,15.81
2023-05-14T19:14:10.837Z,15.69
2023-05-14T19:16:38.087Z,15.72
2023-05-14T19:19:07.650Z,15.53
2023-05-14T19:21:35.063Z,15.47
2023-05-14T19:24:27.519Z,15.35
2023-05-14T19:26:57.439Z,15.26
2023-05-14T19:29:42.219Z,15.26
2023-05-14T19:32:09.721Z,15.17
2023-05-14T19:34:51.778Z,15.20
2023-05-14T19:37:31.795Z,15.23
2023-05-14T19:40:13.724Z,14.98
2023-05-14T19:42:40.740Z,14.89
2023-05-14T19:45:17.486Z,14.68
2023-05-14T19:47:50.284Z,14.56
2023-05-14T19:50:22.807Z,14.54
2023-05-14T19:52:57.365Z,14.57
2023-05-14T19:55:29.928Z,14.63
2023-05-14T19:57:59.135Z,14.67
2023-05-14T20:00:26.731Z,14.59
2023-05-14T20:02:54.976Z,14.66
2023-05-14T20:08:10.508Z,14.58
2023-05-14T20:10:44.953Z,14.47
2023-05-14T20:13:18.370Z,14.40
2023-05-14T20:15:48.470Z,14.36
2023-05-14T20:18:43.216Z,14.37
2023-05-14T20:21:12.603Z,14.39
2023-05-14T20:23:42.067Z,14.42
2023-05-14T20:29:11.422Z,14.27
2023-05-14T20:34:43.868Z,14.11
2023-05-14T20:37:21.009Z,14.13
2023-05-14T20:39:53.358Z,14.21
2023-05-14T20:49:21.281Z,14.10
2023-05-14T20:52:12.967Z,14.05
2023-05-14T20:55:10.763Z,13.99
2023-05-14T20:57:41.152Z,14.08
2023-05-14T21:00:14.104Z,14.12
2023-05-14T21:09:00.338Z,14.14
2023-05-14T21:11:56.136Z,14.12
2023-05-14T21:14:26.840Z,14.11
2023-05-14T21:35:52.965Z,14.10
2023-05-14T21:41:52.895Z,14.01
2023-05-14T21:44:23.635Z,14.00
2023-05-14T21:51:30.340Z,13.89
2023-05-14T22:05:27.255Z,13.78
2023-05-14T22:10:41.720Z,13.61
2023-05-14T22:13:11.499Z,13.59
2023-05-14T22:15:48.315Z,13.73
2023-05-14T22:18:28.314Z,13.83
2023-05-14T22:21:23.135Z,13.67
2023-05-14T22:23:52.773Z,13.76
2023-05-14T22:26:25.192Z,13.72
2023-05-14T22:31:42.376Z,13.72
2023-05-14T22:34:18.157Z,13.80
2023-05-14T22:36:49.464Z,13.83
2023-05-14T22:39:22.766Z,13.89
2023-05-14T22:41:55.822Z,13.67
2023-05-14T22:44:30.046Z,13.43
2023-05-14T22:47:14.983Z,13.50
2023-05-14T22:49:44.200Z,13.49
2023-05-14T22:52:39.420Z,13.43
2023-05-14T22:55:11.267Z,13.44
2023-05-14T22:58:08.048Z,13.43
2023-05-14T23:00:35.230Z,13.39
2023-05-14T23:03:05.179Z,13.32
2023-05-14T23:05:31.906Z,13.24
2023-05-14T23:07:58.481Z,13.21
2023-05-14T23:10:25.173Z,13.31
2023-05-14T23:12:51.903Z,13.29
2023-05-14T23:15:18.471Z,13.31
2023-05-14T23:17:45.281Z,13.38
2023-05-14T23:20:15.204Z,13.33
2023-05-14T23:22:41.855Z,13.30
2023-05-14T23:25:09.038Z,13.23
2023-05-14T23:27:38.562Z,13.29
2023-05-14T23:30:06.031Z,13.39
2023-05-14T23:32:32.678Z,13.39
2023-05-14T23:34:59.354Z,13.40
2023-05-14T23:37:26.352Z,13.34
2023-05-14T23:39:53.395Z,13.27
2023-05-14T23:42:20.816Z,13.26
2023-05-14T23:44:47.488Z,13.25
2023-05-14T23:47:17.353Z,13.32
2023-05-14T23:49:44.096Z,13.38
2023-05-14T23:52:11.728Z,13.36
2023-05-14T23:59:59.912Z,13.32
